Avon, South Dakota
Current Conditions -  °F | °C
As of 4:55 PM on Wednesday 22 Oct 2014 (Local Time) from KYKN Reporting Station
Overcast Overcast  
Wind Chill: 57°   Ceiling: 2000
Heat Index: 57°   Visibility: 7mi
Dew Point: 55°   Wind: 0mph
Humidity: 94%   Direction: NA
Pressure: 29.98"   Gusts: NA
Location:  43.01°N, 98.06°W
Report Text: KYKN 222155Z AUTO 00000KT 7SM SCT008 BKN020 OVC038 14/13 A2998 RMK AO1 LTG DSNT E P0020
Loading
Personal Weather Stations






























Interactive Weather Map
Tropical Storm Tracking
New forecast layout! Learn more

10-Day Weather Forecast

Advertisements
Track Severe Weather on mobile